Time;durP1;ratioP1;P1;durP2;ratioP2;P2;SDS_P1;SDS_P2;PMS_P1;PMS_P2;Temp;Humidity;BMP_temperature;BMP_pressure;BME280_temperature;BME280_humidity;BME280_pressure;Samples;Min_cycle;Max_cycle;Signal;HPM_P1;HPM_P2
2021/04/29 00:02:11;;;;;;;18.25;10.18;;;;;;;13.46;51.49;100341.50;5026592;28;20022;-87
2021/04/29 00:04:38;;;;;;;15.80;9.60;;;;;;;13.27;52.43;100344.84;5021600;28;20113;-84
2021/04/29 00:07:05;;;;;;;13.98;9.45;;;;;;;13.15;53.13;100337.38;5018830;28;20435;-86
2021/04/29 00:09:35;;;;;;;18.08;10.75;;;;;;;13.03;53.76;100338.69;5015185;28;20030;-85
2021/04/29 00:12:02;;;;;;;13.95;9.57;;;;;;;12.97;53.31;100344.25;5014708;28;20053;-85
2021/04/29 00:14:29;;;;;;;15.95;10.25;;;;;;;12.91;54.28;100340.00;5020857;28;20040;-85
2021/04/29 00:16:56;;;;;;;14.57;10.40;;;;;;;13.00;54.07;100330.84;5028751;28;20025;-85
2021/04/29 00:19:23;;;;;;;14.02;9.90;;;;;;;12.94;54.25;100314.19;5015021;28;20030;-85
2021/04/29 00:21:49;;;;;;;17.05;11.02;;;;;;;12.80;54.71;100321.81;5019927;28;20112;-85
2021/04/29 00:24:16;;;;;;;16.20;10.48;;;;;;;12.78;54.82;100319.25;5016629;28;20033;-85
2021/04/29 00:26:42;;;;;;;16.60;11.25;;;;;;;12.45;56.14;100311.56;5017613;28;20029;-85
2021/04/29 00:29:09;;;;;;;16.35;11.45;;;;;;;12.75;55.23;100311.38;5016586;28;20025;-85
2021/04/29 00:31:36;;;;;;;19.70;11.18;;;;;;;12.70;56.07;100315.13;5021305;28;20381;-85
2021/04/29 00:34:02;;;;;;;17.15;10.55;;;;;;;12.69;56.03;100308.06;5016963;28;20075;-85
2021/04/29 00:36:29;;;;;;;18.13;10.60;;;;;;;12.67;55.94;100309.91;5019700;28;20029;-85
2021/04/29 00:38:57;;;;;;;16.48;10.52;;;;;;;12.72;56.40;100307.94;5018871;28;20583;-85
2021/04/29 00:41:24;;;;;;;15.68;9.75;;;;;;;12.81;55.59;100312.06;5024401;28;20045;-84
2021/04/29 00:43:52;;;;;;;14.82;10.43;;;;;;;12.83;55.30;100304.91;5018697;28;20546;-84
2021/04/29 00:46:20;;;;;;;15.50;10.50;;;;;;;12.78;55.67;100303.28;5019633;28;20033;-84
2021/04/29 00:48:47;;;;;;;16.17;9.80;;;;;;;12.64;56.39;100305.59;5015922;28;20025;-86
2021/04/29 00:51:14;;;;;;;16.45;10.98;;;;;;;12.74;55.65;100309.63;5015774;28;20032;-86
2021/04/29 00:53:43;;;;;;;18.70;10.73;;;;;;;12.58;55.79;100295.19;5023350;28;20056;-84
2021/04/29 00:56:10;;;;;;;15.75;9.82;;;;;;;12.58;55.71;100285.41;5018101;28;20022;-85
2021/04/29 00:58:37;;;;;;;16.35;9.85;;;;;;;12.69;55.01;100292.13;5020894;28;20040;-84
2021/04/29 01:01:04;;;;;;;20.48;10.77;;;;;;;12.55;56.34;100290.84;5020270;28;20492;-86
2021/04/29 01:09:35;;;;;;;14.40;10.60;;;;;;;12.62;55.16;100276.41;5055347;27;20964;-84
2021/04/29 01:12:10;;;;;;;17.15;10.38;;;;;;;12.63;55.81;100282.59;5032980;28;20084;-85
2021/04/29 01:14:38;;;;;;;19.67;11.38;;;;;;;12.62;55.50;100268.44;5027038;28;20084;-85
2021/04/29 01:17:06;;;;;;;15.68;10.18;;;;;;;12.61;55.38;100268.47;5013792;28;20048;-84
2021/04/29 01:19:43;;;;;;;15.30;11.43;;;;;;;12.64;55.72;100272.84;5011861;28;20056;-87
2021/04/29 01:22:12;;;;;;;17.65;10.00;;;;;;;12.56;55.19;100265.13;5026075;28;20371;-85
2021/04/29 01:25:05;;;;;;;14.10;10.90;;;;;;;12.73;54.92;100272.47;5021618;28;20449;-85
2021/04/29 01:27:33;;;;;;;25.05;11.10;;;;;;;12.68;54.47;100269.13;5018824;28;20034;-85
2021/04/29 01:30:01;;;;;;;15.95;11.05;;;;;;;12.69;54.71;100270.88;5018759;28;20029;-85
2021/04/29 01:32:28;;;;;;;14.38;9.98;;;;;;;12.59;54.71;100287.13;5025391;28;20022;-85
2021/04/29 01:34:55;;;;;;;18.13;11.40;;;;;;;12.44;54.79;100285.91;5024961;28;20401;-85
2021/04/29 01:37:22;;;;;;;21.58;11.88;;;;;;;12.54;54.98;100289.09;5028942;28;20050;-86
2021/04/29 01:39:49;;;;;;;18.58;11.55;;;;;;;12.69;54.93;100302.75;5020047;28;20026;-87
2021/04/29 01:42:15;;;;;;;16.42;10.60;;;;;;;12.51;55.29;100310.50;5018428;28;20080;-87
2021/04/29 01:44:42;;;;;;;21.05;11.63;;;;;;;12.40;54.72;100315.31;5016183;28;20035;-86
2021/04/29 01:47:09;;;;;;;18.80;11.63;;;;;;;12.34;55.50;100326.19;5027483;28;20032;-84
2021/04/29 01:49:36;;;;;;;19.23;11.20;;;;;;;12.18;55.00;100344.44;5028850;28;20026;-84
2021/04/29 01:52:04;;;;;;;20.02;11.75;;;;;;;12.16;55.46;100346.28;5035263;28;20039;-86
2021/04/29 01:54:31;;;;;;;19.02;11.48;;;;;;;12.14;55.00;100352.50;5048934;28;20112;-85
2021/04/29 01:56:57;;;;;;;17.55;10.90;;;;;;;12.38;54.15;100357.88;5034571;28;20033;-85
2021/04/29 01:59:24;;;;;;;24.13;12.20;;;;;;;12.46;54.44;100344.31;5038307;28;20075;-86
2021/04/29 02:01:50;;;;;;;18.17;12.68;;;;;;;12.17;55.26;100361.28;5047013;28;20030;-85
2021/04/29 02:04:17;;;;;;;18.60;11.02;;;;;;;12.49;54.28;100360.16;5048367;28;20026;-85
2021/04/29 02:06:45;;;;;;;19.40;10.80;;;;;;;12.54;54.17;100368.81;5047931;28;20030;-85
2021/04/29 02:09:13;;;;;;;15.85;11.57;;;;;;;12.50;54.37;100374.31;5046973;28;20454;-85
2021/04/29 02:11:53;;;;;;;19.65;11.82;;;;;;;12.62;54.27;100377.41;5048195;28;20090;-86
2021/04/29 02:14:30;;;;;;;19.05;11.25;;;;;;;12.71;53.89;100392.16;5046997;28;20021;-85
2021/04/29 02:17:02;;;;;;;18.90;13.10;;;;;;;12.57;54.11;100397.97;5047564;28;20025;-85
2021/04/29 02:19:31;;;;;;;20.15;13.40;;;;;;;12.65;53.77;100402.13;5040214;28;20025;-85
2021/04/29 02:21:58;;;;;;;17.00;12.63;;;;;;;12.63;54.88;100399.53;5034383;28;20057;-85
2021/04/29 02:24:25;;;;;;;19.65;11.43;;;;;;;12.61;54.55;100390.72;5033416;28;20025;-85
2021/04/29 02:26:52;;;;;;;19.48;12.75;;;;;;;12.57;55.37;100390.00;5028988;28;20060;-85
2021/04/29 02:29:20;;;;;;;19.10;13.63;;;;;;;12.50;54.93;100390.25;5027043;28;20033;-85
2021/04/29 02:31:47;;;;;;;22.17;13.15;;;;;;;12.42;55.42;100395.84;5015945;28;20021;-85
2021/04/29 02:34:13;;;;;;;21.33;13.23;;;;;;;12.38;55.53;100386.25;5013592;28;20969;-85
2021/04/29 02:36:40;;;;;;;23.27;14.50;;;;;;;12.33;55.75;100386.41;5020050;28;20025;-85
2021/04/29 02:39:07;;;;;;;20.08;14.10;;;;;;;12.29;56.58;100385.63;5035311;28;20079;-85
2021/04/29 02:41:34;;;;;;;22.92;14.68;;;;;;;12.10;57.53;100380.09;5034858;28;20057;-85
2021/04/29 02:44:02;;;;;;;26.25;14.23;;;;;;;12.09;57.60;100378.34;5035069;28;20033;-85
2021/04/29 02:46:29;;;;;;;20.70;14.60;;;;;;;11.93;58.05;100379.75;5035008;28;20030;-84
2021/04/29 02:48:56;;;;;;;26.48;15.93;;;;;;;11.72;59.50;100390.13;5035106;28;20017;-84
2021/04/29 02:51:23;;;;;;;23.77;15.25;;;;;;;11.61;59.96;100393.16;5035052;28;20028;-83
2021/04/29 02:53:50;;;;;;;24.55;15.70;;;;;;;11.46;60.95;100394.50;5035005;28;20033;-83
2021/04/29 02:56:17;;;;;;;37.00;17.67;;;;;;;11.39;62.07;100394.72;5035065;28;20021;-83
2021/04/29 02:58:45;;;;;;;25.63;17.83;;;;;;;11.12;62.74;100394.66;5019256;28;20029;-83
2021/04/29 03:01:12;;;;;;;33.70;18.55;;;;;;;11.04;63.44;100380.72;5024580;28;20121;-83
2021/04/29 03:03:39;;;;;;;32.90;19.55;;;;;;;10.88;64.51;100389.16;5034451;28;20021;-86
2021/04/29 03:06:06;;;;;;;38.80;20.65;;;;;;;10.73;65.51;100386.91;5034740;28;20473;-85
2021/04/29 03:08:33;;;;;;;33.53;20.80;;;;;;;10.99;64.51;100373.78;5034507;28;20056;-83
2021/04/29 03:11:01;;;;;;;40.08;21.33;;;;;;;10.86;65.34;100366.25;5028535;28;20083;-84
2021/04/29 03:13:27;;;;;;;40.85;21.70;;;;;;;10.95;64.42;100350.94;5031523;28;20477;-85
2021/04/29 03:15:54;;;;;;;38.65;21.23;;;;;;;10.83;65.01;100343.34;5034354;28;20025;-87
2021/04/29 03:18:20;;;;;;;37.58;21.77;;;;;;;10.82;65.86;100347.78;5034717;28;20041;-85
2021/04/29 03:20:47;;;;;;;37.53;20.63;;;;;;;10.71;66.38;100327.81;5034493;28;20108;-86
2021/04/29 03:23:13;;;;;;;41.58;22.92;;;;;;;10.80;66.17;100324.88;5034081;28;20034;-86
2021/04/29 03:25:39;;;;;;;42.53;22.85;;;;;;;10.76;66.38;100317.94;5034364;28;20122;-85
2021/04/29 03:28:06;;;;;;;43.10;23.25;;;;;;;10.56;67.65;100305.28;5034129;28;20493;-85
2021/04/29 03:30:32;;;;;;;39.08;23.88;;;;;;;10.77;66.84;100298.50;5033655;28;20128;-84
2021/04/29 03:32:59;;;;;;;45.78;24.23;;;;;;;10.75;67.11;100279.09;5033886;28;20116;-84
2021/04/29 03:35:25;;;;;;;39.15;21.85;;;;;;;10.66;67.80;100270.50;5033903;28;20030;-85
2021/04/29 03:37:52;;;;;;;42.40;24.63;;;;;;;10.70;67.69;100271.28;5034499;28;20030;-85
2021/04/29 03:40:18;;;;;;;42.10;23.52;;;;;;;10.68;67.74;100257.25;5033870;28;20048;-84
2021/04/29 03:42:45;;;;;;;44.35;25.38;;;;;;;10.74;68.17;100250.88;5034274;28;20108;-84
2021/04/29 03:45:12;;;;;;;42.05;25.05;;;;;;;10.86;67.41;100271.69;5033754;28;20021;-85
2021/04/29 03:47:38;;;;;;;39.75;24.50;;;;;;;10.47;68.88;100279.94;5033831;28;20121;-86
2021/04/29 03:50:06;;;;;;;44.08;23.42;;;;;;;10.70;68.40;100276.59;5033902;28;20056;-85
2021/04/29 03:52:33;;;;;;;56.28;25.23;;;;;;;10.65;69.23;100274.09;5033778;28;20068;-84
2021/04/29 03:55:00;;;;;;;49.63;25.00;;;;;;;10.56;69.32;100278.78;5033927;28;20061;-86
2021/04/29 03:57:26;;;;;;;44.25;25.60;;;;;;;10.63;69.27;100275.91;5030493;28;20105;-86
2021/04/29 03:59:52;;;;;;;52.50;24.35;;;;;;;10.61;69.63;100283.03;5026010;28;20161;-85
2021/04/29 04:02:19;;;;;;;48.78;25.15;;;;;;;10.57;69.74;100286.69;5033697;28;20046;-86
2021/04/29 04:04:45;;;;;;;50.80;27.13;;;;;;;10.63;69.42;100289.16;5033432;28;20032;-86
2021/04/29 04:07:11;;;;;;;53.78;26.70;;;;;;;10.83;68.62;100283.25;5019905;28;20027;-87
2021/04/29 04:09:38;;;;;;;50.83;28.27;;;;;;;10.80;69.01;100293.09;5033796;28;20037;-86
2021/04/29 04:12:04;;;;;;;45.33;23.92;;;;;;;10.58;69.86;100295.47;5033413;28;20026;-86
2021/04/29 04:14:31;;;;;;;47.30;27.00;;;;;;;10.98;68.23;100289.03;5033005;28;20021;-87
2021/04/29 04:16:57;;;;;;;53.97;26.77;;;;;;;10.88;68.63;100290.19;5033359;28;20034;-87
2021/04/29 04:19:23;;;;;;;45.92;25.90;;;;;;;10.87;68.60;100288.47;5033580;28;20036;-86
2021/04/29 04:21:49;;;;;;;47.53;25.42;;;;;;;10.72;69.13;100295.13;5033437;28;20041;-86
2021/04/29 04:24:15;;;;;;;47.45;27.10;;;;;;;10.90;68.56;100297.19;5032960;28;20383;-86
2021/04/29 04:26:42;;;;;;;45.40;24.85;;;;;;;10.85;68.75;100291.16;5033127;28;20032;-87
2021/04/29 04:29:08;;;;;;;44.65;23.83;;;;;;;10.90;68.63;100297.19;5032044;28;20041;-87
2021/04/29 04:31:34;;;;;;;41.75;22.90;;;;;;;10.68;69.44;100284.59;5033112;28;20072;-86
2021/04/29 04:34:01;;;;;;;47.63;24.13;;;;;;;10.64;69.77;100298.84;5033035;28;20025;-87
2021/04/29 04:36:27;;;;;;;46.78;24.10;;;;;;;10.75;69.27;100305.59;5032997;28;20042;-87
2021/04/29 04:38:53;;;;;;;54.13;27.08;;;;;;;10.85;68.89;100309.72;5033058;28;20108;-87
2021/04/29 04:41:19;;;;;;;48.63;26.63;;;;;;;10.77;69.07;100304.66;5029346;28;20038;-87
2021/04/29 04:43:46;;;;;;;47.17;26.02;;;;;;;10.73;69.45;100310.06;5021407;28;20044;-87
2021/04/29 04:46:12;;;;;;;49.40;25.10;;;;;;;10.56;69.67;100300.84;5033045;28;20061;-86
2021/04/29 04:48:38;;;;;;;46.75;26.73;;;;;;;10.74;69.13;100309.16;5032696;28;20104;-87
2021/04/29 04:51:04;;;;;;;46.33;25.13;;;;;;;10.92;68.41;100302.47;5032839;28;20033;-87
2021/04/29 04:53:32;;;;;;;43.45;23.13;;;;;;;10.50;69.60;100306.31;5032173;28;20026;-87
2021/04/29 04:55:59;;;;;;;47.78;25.05;;;;;;;10.89;68.55;100306.06;5024665;28;20084;-87
2021/04/29 04:58:25;;;;;;;40.75;24.42;;;;;;;10.83;68.83;100306.25;5015709;28;20038;-87
2021/04/29 05:00:51;;;;;;;43.22;23.33;;;;;;;10.69;68.51;100301.34;5032125;28;20025;-87
2021/04/29 05:03:19;;;;;;;38.15;22.60;;;;;;;10.63;69.17;100305.06;5032675;28;20109;-86
2021/04/29 05:05:45;;;;;;;37.67;23.20;;;;;;;10.92;67.92;100300.66;5032142;28;20021;-87
2021/04/29 05:08:12;;;;;;;40.00;23.38;;;;;;;10.86;67.95;100298.19;5031262;28;20099;-88
2021/04/29 05:10:39;;;;;;;38.90;21.15;;;;;;;10.78;67.46;100310.78;5031932;28;20042;-87
2021/04/29 05:13:07;;;;;;;40.35;22.65;;;;;;;11.00;67.04;100305.72;5032995;28;20029;-86
2021/04/29 05:15:34;;;;;;;34.13;21.15;;;;;;;10.71;67.71;100298.66;5029026;28;20033;-87
2021/04/29 05:18:01;;;;;;;34.00;19.92;;;;;;;10.71;67.35;100299.53;5030452;28;20022;-87
2021/04/29 05:20:28;;;;;;;31.17;18.88;;;;;;;10.73;67.13;100308.31;5026783;28;20034;-87
2021/04/29 05:22:54;;;;;;;32.38;20.55;;;;;;;10.65;67.17;100307.66;5030837;28;20389;-86
2021/04/29 05:25:23;;;;;;;36.47;20.58;;;;;;;10.72;66.92;100295.13;5026540;28;20051;-84
2021/04/29 05:27:51;;;;;;;33.85;20.15;;;;;;;10.82;66.61;100292.13;5012586;28;20030;-86
2021/04/29 05:30:18;;;;;;;39.50;21.35;;;;;;;10.84;66.67;100294.72;5012979;28;20026;-87
2021/04/29 05:32:44;;;;;;;32.45;19.85;;;;;;;10.76;67.03;100297.59;5008602;28;20058;-84
2021/04/29 05:35:10;;;;;;;37.45;20.80;;;;;;;10.78;67.11;100302.84;5014411;28;20026;-87
2021/04/29 05:37:37;;;;;;;35.63;20.85;;;;;;;10.90;66.64;100305.13;5010142;28;20026;-86
2021/04/29 05:40:04;;;;;;;40.67;21.40;;;;;;;10.93;66.70;100296.22;5022313;28;20125;-85
2021/04/29 05:42:30;;;;;;;34.83;19.70;;;;;;;10.83;66.69;100295.66;5024997;28;20124;-87
2021/04/29 05:44:56;;;;;;;28.67;18.92;;;;;;;10.88;66.72;100298.16;5019142;28;20030;-86
2021/04/29 05:47:23;;;;;;;31.75;19.77;;;;;;;10.71;67.10;100301.31;5014257;28;20519;-86
2021/04/29 05:49:49;;;;;;;36.60;20.75;;;;;;;10.94;66.51;100298.84;5005877;28;20433;-86
2021/04/29 05:52:15;;;;;;;33.00;19.60;;;;;;;10.96;66.63;100299.66;5013767;28;20025;-85
2021/04/29 05:54:42;;;;;;;32.78;20.02;;;;;;;10.99;66.61;100302.22;5004983;28;20040;-90
2021/04/29 05:57:08;;;;;;;31.63;20.25;;;;;;;10.93;66.62;100305.06;5021604;28;20029;-90
2021/04/29 05:59:34;;;;;;;31.17;18.60;;;;;;;10.96;66.19;100310.25;5022441;28;20029;-91
2021/04/29 06:02:00;;;;;;;31.70;17.77;;;;;;;11.15;65.80;100310.56;5021578;28;20038;-84
2021/04/29 06:04:28;;;;;;;29.35;18.65;;;;;;;11.15;65.68;100315.00;5017520;28;20052;-92
2021/04/29 06:06:55;;;;;;;26.75;17.20;;;;;;;10.89;66.22;100314.03;5014988;28;20034;-89
2021/04/29 06:09:21;;;;;;;31.23;17.98;;;;;;;11.10;65.70;100306.31;5018430;28;20064;-90
2021/04/29 06:11:47;;;;;;;29.23;18.15;;;;;;;11.11;65.52;100308.06;5016428;28;20040;-90
2021/04/29 06:14:18;;;;;;;29.77;17.75;;;;;;;11.16;65.48;100311.44;5054529;22;20088;-87
2021/04/29 06:16:45;;;;;;;32.90;16.80;;;;;;;11.30;64.93;100319.84;5034324;28;20088;-87
2021/04/29 06:19:11;;;;;;;27.88;15.80;;;;;;;11.26;64.67;100322.63;5036653;28;20030;-92
2021/04/29 06:21:38;;;;;;;29.25;17.08;;;;;;;11.07;64.27;100317.88;5035844;28;20029;-93
2021/04/29 06:24:04;;;;;;;26.75;15.95;;;;;;;11.00;64.63;100325.16;5036209;28;20485;-85
2021/04/29 06:26:33;;;;;;;19.75;15.32;;;;;;;11.25;63.69;100331.50;5036515;28;20037;-90
2021/04/29 06:28:59;;;;;;;26.25;15.95;;;;;;;11.08;63.38;100329.34;5031675;28;20033;-93
2021/04/29 06:31:27;;;;;;;22.77;15.18;;;;;;;11.13;63.28;100332.75;5032775;28;20025;-88
2021/04/29 06:33:56;;;;;;;27.92;15.50;;;;;;;11.19;62.99;100334.34;5041688;28;20432;-94
2021/04/29 06:36:23;;;;;;;31.58;18.35;;;;;;;11.19;62.63;100343.19;5041822;28;20069;-92
2021/04/29 06:38:49;;;;;;;27.55;18.02;;;;;;;11.03;62.84;100352.47;5037850;28;20036;-85
2021/04/29 06:41:15;;;;;;;23.83;15.82;;;;;;;10.80;63.49;100351.38;5038982;28;20033;-87
2021/04/29 06:43:41;;;;;;;22.60;15.10;;;;;;;10.91;63.01;100356.38;5044226;28;20104;-93
2021/04/29 06:46:10;;;;;;;25.88;16.45;;;;;;;10.97;63.03;100358.84;5047096;28;20026;-94
2021/04/29 06:48:38;;;;;;;26.77;15.70;;;;;;;10.96;63.15;100352.66;5059420;28;20033;-95
2021/04/29 06:51:05;;;;;;;28.38;15.80;;;;;;;10.91;63.19;100370.50;5037560;28;20500;-94
2021/04/29 06:53:31;;;;;;;23.60;15.73;;;;;;;10.90;63.27;100367.88;5027133;28;20036;-91
2021/04/29 06:55:57;;;;;;;20.33;15.70;;;;;;;10.96;62.96;100371.22;5030230;28;20049;-86
2021/04/29 06:58:24;;;;;;;25.33;16.65;;;;;;;11.10;62.75;100383.22;5037017;28;20559;-92
2021/04/29 07:00:51;;;;;;;30.75;16.48;;;;;;;11.18;62.43;100383.84;5038837;28;20109;-90
2021/04/29 07:03:17;;;;;;;25.77;18.02;;;;;;;11.19;62.44;100382.06;5038448;28;20025;-93
2021/04/29 07:05:44;;;;;;;27.63;16.25;;;;;;;11.00;62.96;100385.25;5039026;28;20033;-95
2021/04/29 07:08:10;;;;;;;25.55;16.38;;;;;;;11.20;62.47;100386.47;5043592;28;20033;-94
2021/04/29 07:10:36;;;;;;;26.00;15.88;;;;;;;11.24;62.23;100394.28;5047232;28;20022;-87
2021/04/29 07:13:03;;;;;;;27.17;16.63;;;;;;;11.26;61.90;100400.38;5041685;28;20037;-92
2021/04/29 07:15:29;;;;;;;27.67;16.77;;;;;;;11.21;62.32;100401.47;5044043;28;20070;-94
2021/04/29 07:18:00;;;;;;;22.55;16.08;;;;;;;11.23;62.26;100411.09;5037853;28;20025;-93
2021/04/29 07:20:29;;;;;;;21.02;14.90;;;;;;;11.16;62.63;100412.19;5043268;28;20064;-81
2021/04/29 07:22:57;;;;;;;35.42;22.23;;;;;;;11.06;62.17;100411.59;5037825;28;20392;-90
2021/04/29 07:25:24;;;;;;;26.98;16.83;;;;;;;11.06;62.22;100416.88;5037868;28;20037;-82
2021/04/29 07:27:51;;;;;;;23.60;16.08;;;;;;;11.16;61.71;100422.81;5051326;28;20029;-90
2021/04/29 07:30:17;;;;;;;24.45;15.88;;;;;;;10.89;62.45;100435.06;5038499;28;20056;-86
2021/04/29 07:32:44;;;;;;;27.98;16.85;;;;;;;11.04;61.72;100429.34;5041795;28;20056;-91
2021/04/29 07:35:11;;;;;;;20.27;14.77;;;;;;;11.03;61.73;100432.91;5051097;28;20115;-94
2021/04/29 07:37:38;;;;;;;27.55;15.98;;;;;;;10.98;61.57;100435.66;5040479;28;20083;-90
2021/04/29 07:40:05;;;;;;;25.75;15.80;;;;;;;10.93;61.48;100437.59;5039779;28;20036;-93
2021/04/29 07:42:31;;;;;;;25.50;15.82;;;;;;;10.72;61.65;100433.75;5037683;28;20403;-95
2021/04/29 07:45:01;;;;;;;26.52;16.33;;;;;;;10.78;61.38;100440.66;5045405;28;20562;-92
2021/04/29 07:47:27;;;;;;;27.60;17.38;;;;;;;10.90;61.37;100437.66;5048190;28;20044;-96
2021/04/29 07:49:55;;;;;;;22.10;14.55;;;;;;;11.03;60.99;100445.28;5034049;28;20503;-94
2021/04/29 07:52:25;;;;;;;23.85;15.98;;;;;;;11.09;60.99;100443.34;5029795;28;20026;-95
2021/04/29 07:54:56;;;;;;;25.35;16.50;;;;;;;11.03;61.02;100443.50;5037310;28;20116;-90
2021/04/29 07:57:24;;;;;;;23.08;16.02;;;;;;;11.12;61.04;100439.72;5031295;28;20464;-89
2021/04/29 07:59:51;;;;;;;25.10;15.98;;;;;;;10.87;62.06;100442.19;5037692;28;20026;-91
2021/04/29 08:02:31;;;;;;;26.02;17.60;;;;;;;11.22;61.25;100440.31;5049309;28;20056;-93
2021/04/29 08:04:58;;;;;;;25.42;16.13;;;;;;;11.09;61.46;100442.44;5053311;28;20084;-91
2021/04/29 08:07:24;;;;;;;28.45;16.50;;;;;;;11.15;61.40;100443.16;5038410;28;20061;-95
2021/04/29 08:09:50;;;;;;;22.83;16.27;;;;;;;11.12;61.62;100447.69;5032945;28;20026;-88
2021/04/29 08:12:17;;;;;;;26.13;18.13;;;;;;;11.17;61.17;100451.06;5036014;28;20022;-89
2021/04/29 08:14:43;;;;;;;25.90;15.98;;;;;;;10.91;61.74;100457.94;5044105;28;20040;-84
2021/04/29 08:17:09;;;;;;;23.98;15.10;;;;;;;10.75;61.91;100459.28;5038148;28;20408;-92
2021/04/29 08:19:40;;;;;;;29.17;16.95;;;;;;;10.77;61.96;100462.78;5040968;28;20489;-88
2021/04/29 08:22:07;;;;;;;24.67;15.65;;;;;;;10.75;62.08;100468.09;5036858;28;20026;-83
2021/04/29 08:24:35;;;;;;;23.75;15.63;;;;;;;10.60;62.31;100477.31;5033804;28;20135;-92
2021/04/29 08:27:02;;;;;;;21.48;15.48;;;;;;;10.64;61.85;100478.13;5046719;28;20044;-85
2021/04/29 08:29:29;;;;;;;26.40;16.33;;;;;;;10.52;62.02;100474.03;5040364;28;20032;-86
2021/04/29 08:31:55;;;;;;;24.25;15.82;;;;;;;10.63;61.73;100476.38;5041224;28;20036;-89
2021/04/29 08:34:21;;;;;;;21.17;15.52;;;;;;;10.50;62.01;100481.13;5037741;28;20026;-90
2021/04/29 08:36:49;;;;;;;25.40;15.98;;;;;;;10.44;61.93;100481.28;5029274;28;20034;-92
2021/04/29 08:39:15;;;;;;;22.60;14.57;;;;;;;10.58;61.44;100481.81;5034446;28;20031;-90
2021/04/29 08:41:43;;;;;;;23.52;14.68;;;;;;;10.58;61.84;100487.09;5036881;28;20026;-91
2021/04/29 08:44:10;;;;;;;21.80;15.02;;;;;;;10.44;62.38;100489.22;5029035;28;20119;-79
2021/04/29 08:46:36;;;;;;;22.77;15.10;;;;;;;10.53;61.43;100496.97;5037958;28;20541;-85
2021/04/29 08:49:02;;;;;;;19.30;14.25;;;;;;;10.45;61.69;100498.91;5038169;28;20488;-84
2021/04/29 08:51:30;;;;;;;18.77;13.80;;;;;;;10.54;61.78;100503.97;5040109;28;20029;-83
2021/04/29 08:53:56;;;;;;;23.55;14.85;;;;;;;10.62;61.30;100507.31;5035250;28;20056;-84
2021/04/29 08:56:25;;;;;;;20.33;13.93;;;;;;;10.73;61.42;100501.75;5033054;28;20044;-84
2021/04/29 08:58:54;;;;;;;20.85;14.43;;;;;;;10.72;61.10;100504.44;5034641;28;20018;-83
2021/04/29 09:01:21;;;;;;;23.42;14.63;;;;;;;10.56;61.72;100511.91;5033047;28;20434;-82
2021/04/29 09:03:48;;;;;;;22.17;14.77;;;;;;;10.36;61.78;100516.75;5043058;28;20032;-86
2021/04/29 09:06:15;;;;;;;23.13;13.27;;;;;;;10.66;61.20;100519.56;5036397;28;20480;-80
2021/04/29 09:08:42;;;;;;;25.10;14.55;;;;;;;10.73;61.00;100525.59;5037227;28;20037;-87
2021/04/29 09:11:19;;;;;;;19.73;13.95;;;;;;;10.64;60.87;100525.81;5037462;28;20021;-92
2021/04/29 09:14:05;;;;;;;21.50;14.27;;;;;;;10.70;60.43;100541.53;5055607;22;20029;-84
2021/04/29 09:16:47;;;;;;;20.77;14.13;;;;;;;10.64;60.04;100537.28;5009425;28;20026;-88
2021/04/29 09:19:22;;;;;;;18.33;13.53;;;;;;;10.75;59.95;100533.50;5012083;28;20026;-89
2021/04/29 09:21:49;;;;;;;20.17;13.88;;;;;;;10.69;60.28;100550.41;5009841;28;20052;-88
2021/04/29 09:24:15;;;;;;;21.65;14.68;;;;;;;10.56;60.18;100547.19;5011550;28;20096;-87
2021/04/29 09:26:42;;;;;;;22.52;13.25;;;;;;;10.53;60.74;100557.88;5011852;28;20033;-87
2021/04/29 09:29:13;;;;;;;23.52;15.38;;;;;;;10.56;60.68;100563.09;4996941;28;20548;-87
2021/04/29 09:31:44;;;;;;;20.20;14.50;;;;;;;10.37;61.42;100560.03;4997195;28;20027;-87
2021/04/29 09:34:11;;;;;;;22.48;15.95;;;;;;;10.30;61.07;100568.97;4996574;28;20023;-87
2021/04/29 09:36:43;;;;;;;20.20;14.18;;;;;;;10.30;61.12;100575.13;5003865;28;20030;-88
2021/04/29 09:39:13;;;;;;;22.48;16.15;;;;;;;10.35;61.15;100578.56;4999026;28;20026;-88
2021/04/29 09:41:46;;;;;;;23.25;14.65;;;;;;;10.35;61.28;100581.22;5003193;28;20058;-88
2021/04/29 09:44:14;;;;;;;21.75;15.30;;;;;;;10.43;61.29;100586.38;4998130;28;20030;-87
2021/04/29 09:46:44;;;;;;;23.42;14.85;;;;;;;10.16;62.18;100591.34;5000382;28;20026;-85
2021/04/29 09:49:32;;;;;;;19.67;15.30;;;;;;;10.14;63.00;100600.22;5007042;28;20061;-84
2021/04/29 09:52:00;;;;;;;27.27;16.63;;;;;;;10.06;62.55;100607.50;5004874;28;20046;-89
2021/04/29 09:57:09;;;;;;;24.50;15.02;;;;;;;9.93;63.98;100614.78;5060638;27;20814;-88
2021/04/29 09:59:40;;;;;;;28.90;18.20;;;;;;;10.03;63.86;100625.16;5065651;28;20119;-87
2021/04/29 10:02:09;;;;;;;24.15;16.63;;;;;;;10.06;63.56;100623.38;5065258;28;20025;-89
2021/04/29 10:04:46;;;;;;;25.45;15.88;;;;;;;10.09;63.71;100632.09;5057399;28;20387;-87
2021/04/29 10:07:14;;;;;;;22.20;15.18;;;;;;;10.02;63.92;100634.00;5042795;28;20427;-87
2021/04/29 10:09:43;;;;;;;25.02;15.52;;;;;;;9.94;64.07;100638.56;5047490;28;20025;-86
2021/04/29 10:14:51;;;;;;;25.50;15.95;;;;;;;10.00;63.96;100641.09;5071004;27;20424;-88
2021/04/29 10:17:19;;;;;;;23.00;15.30;;;;;;;10.00;63.47;100643.75;5048346;28;20033;-87
2021/04/29 10:19:51;;;;;;;22.20;15.13;;;;;;;9.86;64.26;100651.13;5048391;28;20045;-90
2021/04/29 10:22:19;;;;;;;22.77;16.25;;;;;;;9.86;64.31;100648.47;5049658;28;20034;-88
2021/04/29 10:24:47;;;;;;;25.42;17.00;;;;;;;9.87;63.87;100656.38;5049537;28;20055;-89
2021/04/29 10:27:18;;;;;;;24.58;16.88;;;;;;;9.92;63.98;100658.94;5049787;28;20068;-90
2021/04/29 10:29:45;;;;;;;25.70;18.00;;;;;;;9.90;64.54;100660.72;5049138;28;20036;-89
2021/04/29 10:32:14;;;;;;;25.88;17.58;;;;;;;9.99;64.41;100662.31;5048421;28;20057;-89
2021/04/29 10:34:44;;;;;;;28.40;19.05;;;;;;;10.10;63.96;100670.03;5048369;28;20400;-89
2021/04/29 10:37:28;;;;;;;33.85;19.30;;;;;;;10.08;65.08;100669.19;5048229;28;20468;-89
2021/04/29 10:39:57;;;;;;;30.23;19.20;;;;;;;10.04;65.01;100674.56;5047589;28;20021;-86
2021/04/29 10:42:28;;;;;;;32.25;19.27;;;;;;;10.02;65.28;100676.34;5047210;28;20108;-87
2021/04/29 10:44:59;;;;;;;29.70;20.05;;;;;;;10.04;65.18;100679.84;5073110;22;20036;-88
2021/04/29 10:47:28;;;;;;;29.15;19.45;;;;;;;10.01;65.23;100679.91;5069187;28;20468;-88
2021/04/29 10:50:18;;;;;;;33.25;21.88;;;;;;;10.17;65.74;100691.06;5071072;28;20033;-88
2021/04/29 10:58:25;;;;;;;37.65;23.10;;;;;;;10.18;65.69;100698.09;5071101;28;20400;-87
2021/04/29 11:03:50;;;;;;;37.28;24.38;;;;;;;10.42;65.41;100694.97;5045582;28;20405;-88
2021/04/29 11:06:20;;;;;;;40.17;23.85;;;;;;;10.53;65.08;100698.28;5030862;28;20117;-88
2021/04/29 11:08:52;;;;;;;38.50;22.73;;;;;;;10.56;65.37;100703.50;5014787;28;20358;-85
2021/04/29 11:16:59;;;;;;;34.90;20.90;;;;;;;10.44;65.13;100711.72;5090799;27;20437;-86
2021/04/29 11:19:48;;;;;;;36.45;21.98;;;;;;;10.58;64.74;100714.94;5070703;28;20029;-86
2021/04/29 11:24:58;;;;;;;48.28;23.95;;;;;;;10.52;65.32;100728.31;5079531;27;20436;-86
2021/04/29 11:27:40;;;;;;;37.25;23.00;;;;;;;10.54;65.29;100737.09;5071120;28;20479;-84
2021/04/29 11:32:56;;;;;;;36.05;21.90;;;;;;;10.47;65.53;100731.06;5111468;27;20698;-83
2021/04/29 11:35:26;;;;;;;30.63;20.30;;;;;;;10.31;65.91;100735.78;5110091;28;20036;-83
2021/04/29 11:37:53;;;;;;;33.58;20.42;;;;;;;10.28;65.44;100735.84;5111308;27;20085;-83
2021/04/29 11:40:20;;;;;;;40.03;20.33;;;;;;;10.34;65.49;100741.03;5111055;28;20054;-84
2021/04/29 11:42:52;;;;;;;35.92;20.80;;;;;;;10.25;65.50;100737.69;5110701;28;20028;-82
2021/04/29 11:45:22;;;;;;;29.90;19.15;;;;;;;10.33;65.49;100755.16;5110802;28;20024;-84